sensor_id;sensor_type;location;lat;lon;timestamp;pressure;altitude;pressure_sealevel;temperature;humidity
63500;BME280;49654;51.142;14.924;2022-07-09T00:00:33;100065.22;;;15.99;72.17
63500;BME280;49654;51.142;14.924;2022-07-09T00:03:00;100088.34;;;15.96;72.69
63500;BME280;49654;51.142;14.924;2022-07-09T00:05:27;100088.88;;;15.85;72.86
63500;BME280;49654;51.142;14.924;2022-07-09T00:07:54;100081.94;;;15.77;73.30
63500;BME280;49654;51.142;14.924;2022-07-09T00:10:21;100090.72;;;15.69;73.60
63500;BME280;49654;51.142;14.924;2022-07-09T00:12:48;100081.41;;;15.67;73.38
63500;BME280;49654;51.142;14.924;2022-07-09T00:15:15;100087.75;;;15.43;74.22
63500;BME280;49654;51.142;14.924;2022-07-09T00:17:43;100034.81;;;15.11;74.49
63500;BME280;49654;51.142;14.924;2022-07-09T00:20:11;100089.72;;;15.41;74.61
63500;BME280;49654;51.142;14.924;2022-07-09T00:22:38;100086.41;;;15.32;74.92
63500;BME280;49654;51.142;14.924;2022-07-09T00:25:05;100084.59;;;15.33;74.92
63500;BME280;49654;51.142;14.924;2022-07-09T00:27:32;100081.56;;;15.29;75.29
63500;BME280;49654;51.142;14.924;2022-07-09T00:29:59;100064.84;;;15.15;75.61
63500;BME280;49654;51.142;14.924;2022-07-09T00:32:26;100077.03;;;15.23;75.46
63500;BME280;49654;51.142;14.924;2022-07-09T00:34:54;100078.50;;;15.25;75.24
63500;BME280;49654;51.142;14.924;2022-07-09T00:37:21;100081.75;;;15.13;75.93
63500;BME280;49654;51.142;14.924;2022-07-09T00:39:48;100071.09;;;15.14;75.93
63500;BME280;49654;51.142;14.924;2022-07-09T00:42:15;100075.59;;;15.06;76.20
63500;BME280;49654;51.142;14.924;2022-07-09T00:44:42;100067.69;;;14.99;76.37
63500;BME280;49654;51.142;14.924;2022-07-09T00:47:09;100064.16;;;14.92;76.86
63500;BME280;49654;51.142;14.924;2022-07-09T00:49:39;100054.31;;;14.94;76.88
63500;BME280;49654;51.142;14.924;2022-07-09T00:52:12;100066.22;;;14.82;77.48
63500;BME280;49654;51.142;14.924;2022-07-09T00:54:40;100063.53;;;14.75;77.78
63500;BME280;49654;51.142;14.924;2022-07-09T00:57:08;100071.81;;;14.78;77.52
63500;BME280;49654;51.142;14.924;2022-07-09T00:59:38;100051.63;;;14.58;78.30
63500;BME280;49654;51.142;14.924;2022-07-09T01:02:06;100056.66;;;14.59;78.73
63500;BME280;49654;51.142;14.924;2022-07-09T01:04:33;100056.56;;;14.52;78.88
63500;BME280;49654;51.142;14.924;2022-07-09T01:07:00;100056.38;;;14.54;79.31
63500;BME280;49654;51.142;14.924;2022-07-09T01:09:28;100059.34;;;14.51;79.14
63500;BME280;49654;51.142;14.924;2022-07-09T01:11:56;100051.50;;;14.51;79.45
63500;BME280;49654;51.142;14.924;2022-07-09T01:14:24;100052.00;;;14.46;79.67
63500;BME280;49654;51.142;14.924;2022-07-09T01:16:57;100059.69;;;14.48;79.48
63500;BME280;49654;51.142;14.924;2022-07-09T01:19:24;100055.63;;;14.45;79.21
63500;BME280;49654;51.142;14.924;2022-07-09T01:21:52;100058.09;;;14.39;79.91
63500;BME280;49654;51.142;14.924;2022-07-09T01:24:19;100046.91;;;14.30;79.67
63500;BME280;49654;51.142;14.924;2022-07-09T01:26:46;100057.22;;;14.32;79.73
63500;BME280;49654;51.142;14.924;2022-07-09T01:29:14;100056.63;;;14.21;80.33
63500;BME280;49654;51.142;14.924;2022-07-09T01:31:41;100050.13;;;14.17;80.74
63500;BME280;49654;51.142;14.924;2022-07-09T01:34:08;100055.06;;;14.12;80.61
63500;BME280;49654;51.142;14.924;2022-07-09T01:36:34;100035.75;;;13.98;80.97
63500;BME280;49654;51.142;14.924;2022-07-09T01:39:03;100041.41;;;14.10;81.05
63500;BME280;49654;51.142;14.924;2022-07-09T01:41:30;100040.75;;;14.08;80.79
63500;BME280;49654;51.142;14.924;2022-07-09T01:43:57;100042.28;;;14.17;81.24
63500;BME280;49654;51.142;14.924;2022-07-09T01:46:25;100040.34;;;14.19;81.25
63500;BME280;49654;51.142;14.924;2022-07-09T01:48:52;100031.03;;;14.17;81.45
63500;BME280;49654;51.142;14.924;2022-07-09T01:51:18;99955.19;;;13.72;81.47
63500;BME280;49654;51.142;14.924;2022-07-09T01:53:47;100026.22;;;14.28;80.83
63500;BME280;49654;51.142;14.924;2022-07-09T01:56:16;100022.97;;;14.41;81.01
63500;BME280;49654;51.142;14.924;2022-07-09T01:58:43;100031.59;;;14.50;80.80
63500;BME280;49654;51.142;14.924;2022-07-09T02:01:10;100005.72;;;14.55;80.49
63500;BME280;49654;51.142;14.924;2022-07-09T02:03:37;100021.22;;;14.71;80.38
63500;BME280;49654;51.142;14.924;2022-07-09T02:06:04;100018.78;;;14.85;80.27
63500;BME280;49654;51.142;14.924;2022-07-09T02:08:32;100018.97;;;14.98;80.17
63500;BME280;49654;51.142;14.924;2022-07-09T02:10:58;100018.78;;;15.14;80.07
63500;BME280;49654;51.142;14.924;2022-07-09T02:13:27;100013.69;;;15.27;79.48
63500;BME280;49654;51.142;14.924;2022-07-09T02:15:54;100008.81;;;15.24;80.00
63500;BME280;49654;51.142;14.924;2022-07-09T02:18:21;100008.72;;;15.33;79.56
63500;BME280;49654;51.142;14.924;2022-07-09T02:20:47;100004.47;;;15.32;80.05
63500;BME280;49654;51.142;14.924;2022-07-09T02:23:14;100003.69;;;15.52;79.14
63500;BME280;49654;51.142;14.924;2022-07-09T02:25:41;99998.09;;;15.56;79.26
63500;BME280;49654;51.142;14.924;2022-07-09T02:28:08;99998.09;;;15.56;79.24
63500;BME280;49654;51.142;14.924;2022-07-09T02:30:36;99993.59;;;15.49;79.43
63500;BME280;49654;51.142;14.924;2022-07-09T02:33:03;99989.56;;;15.47;79.58
63500;BME280;49654;51.142;14.924;2022-07-09T02:35:31;99986.16;;;15.32;80.17
63500;BME280;49654;51.142;14.924;2022-07-09T02:37:58;99988.31;;;15.28;80.37
63500;BME280;49654;51.142;14.924;2022-07-09T02:40:25;99992.25;;;15.17;80.64
63500;BME280;49654;51.142;14.924;2022-07-09T02:42:52;99977.28;;;15.11;81.61
63500;BME280;49654;51.142;14.924;2022-07-09T02:45:19;99982.59;;;15.03;81.74
63500;BME280;49654;51.142;14.924;2022-07-09T02:47:47;99978.56;;;15.00;81.94
63500;BME280;49654;51.142;14.924;2022-07-09T02:50:14;99978.47;;;14.94;82.26
63500;BME280;49654;51.142;14.924;2022-07-09T02:52:41;99978.22;;;14.89;83.00
63500;BME280;49654;51.142;14.924;2022-07-09T02:55:08;99974.53;;;14.83;82.92
63500;BME280;49654;51.142;14.924;2022-07-09T02:57:35;99975.06;;;14.93;82.56
63500;BME280;49654;51.142;14.924;2022-07-09T03:00:03;99977.06;;;14.91;82.92
63500;BME280;49654;51.142;14.924;2022-07-09T03:02:30;99987.13;;;14.94;83.07
63500;BME280;49654;51.142;14.924;2022-07-09T03:04:58;99982.00;;;15.01;82.53
63500;BME280;49654;51.142;14.924;2022-07-09T03:07:25;99902.88;;;14.48;82.48
63500;BME280;49654;51.142;14.924;2022-07-09T03:09:52;99989.94;;;14.93;82.70
63500;BME280;49654;51.142;14.924;2022-07-09T03:12:19;99989.69;;;14.88;82.94
63500;BME280;49654;51.142;14.924;2022-07-09T03:14:46;99988.97;;;14.79;83.24
63500;BME280;49654;51.142;14.924;2022-07-09T03:17:13;99985.28;;;14.73;83.59
63500;BME280;49654;51.142;14.924;2022-07-09T03:19:40;99992.81;;;14.68;83.61
63500;BME280;49654;51.142;14.924;2022-07-09T03:22:08;99988.94;;;14.64;84.13
63500;BME280;49654;51.142;14.924;2022-07-09T03:24:35;99994.81;;;14.66;83.95
63500;BME280;49654;51.142;14.924;2022-07-09T03:27:02;99988.34;;;14.62;84.35
63500;BME280;49654;51.142;14.924;2022-07-09T03:29:29;99989.59;;;14.66;84.50
63500;BME280;49654;51.142;14.924;2022-07-09T03:31:56;99986.34;;;14.64;84.28
63500;BME280;49654;51.142;14.924;2022-07-09T03:34:23;99985.91;;;14.75;84.07
63500;BME280;49654;51.142;14.924;2022-07-09T03:36:50;99995.34;;;14.76;84.19
63500;BME280;49654;51.142;14.924;2022-07-09T03:39:18;99993.38;;;14.78;84.40
63500;BME280;49654;51.142;14.924;2022-07-09T03:41:45;99990.13;;;14.76;84.72
63500;BME280;49654;51.142;14.924;2022-07-09T03:44:12;99995.34;;;14.76;84.55
63500;BME280;49654;51.142;14.924;2022-07-09T03:46:39;99993.75;;;14.75;84.83
63500;BME280;49654;51.142;14.924;2022-07-09T03:49:06;99989.78;;;14.80;84.47
63500;BME280;49654;51.142;14.924;2022-07-09T03:51:33;99969.50;;;14.67;84.44
63500;BME280;49654;51.142;14.924;2022-07-09T03:53:59;99981.47;;;14.76;84.82
63500;BME280;49654;51.142;14.924;2022-07-09T03:56:28;99993.44;;;14.85;84.85
63500;BME280;49654;51.142;14.924;2022-07-09T03:58:55;99995.91;;;14.87;85.46
63500;BME280;49654;51.142;14.924;2022-07-09T04:01:22;99997.78;;;15.08;84.92
63500;BME280;49654;51.142;14.924;2022-07-09T04:03:49;100000.13;;;15.39;83.85
63500;BME280;49654;51.142;14.924;2022-07-09T04:06:15;100003.28;;;15.70;81.92
63500;BME280;49654;51.142;14.924;2022-07-09T04:08:42;100004.41;;;15.83;81.76
63500;BME280;49654;51.142;14.924;2022-07-09T04:11:09;99997.59;;;15.88;80.74
63500;BME280;49654;51.142;14.924;2022-07-09T04:13:40;100006.13;;;15.97;80.91
63500;BME280;49654;51.142;14.924;2022-07-09T04:16:07;99999.72;;;15.99;80.73
63500;BME280;49654;51.142;14.924;2022-07-09T04:18:34;100000.72;;;15.98;81.25
63500;BME280;49654;51.142;14.924;2022-07-09T04:21:01;100003.59;;;16.03;80.96
63500;BME280;49654;51.142;14.924;2022-07-09T04:23:28;100002.09;;;15.94;81.41
63500;BME280;49654;51.142;14.924;2022-07-09T04:25:55;99995.81;;;15.89;81.56
63500;BME280;49654;51.142;14.924;2022-07-09T04:28:22;99991.53;;;15.81;82.06
63500;BME280;49654;51.142;14.924;2022-07-09T04:30:50;100003.81;;;15.81;82.05
63500;BME280;49654;51.142;14.924;2022-07-09T04:33:17;99976.75;;;15.73;81.37
63500;BME280;49654;51.142;14.924;2022-07-09T04:35:44;100005.41;;;15.82;81.70
63500;BME280;49654;51.142;14.924;2022-07-09T04:38:11;100017.47;;;15.76;81.92
63500;BME280;49654;51.142;14.924;2022-07-09T04:40:38;100002.97;;;15.80;81.81
63500;BME280;49654;51.142;14.924;2022-07-09T04:43:06;100014.28;;;15.81;81.75
63500;BME280;49654;51.142;14.924;2022-07-09T04:45:33;99985.59;;;15.72;82.12
63500;BME280;49654;51.142;14.924;2022-07-09T04:48:02;100002.69;;;15.90;81.79
63500;BME280;49654;51.142;14.924;2022-07-09T04:50:29;99995.28;;;16.00;81.80
63500;BME280;49654;51.142;14.924;2022-07-09T04:52:56;99998.66;;;16.15;80.76
63500;BME280;49654;51.142;14.924;2022-07-09T04:55:23;100006.47;;;16.37;80.50
63500;BME280;49654;51.142;14.924;2022-07-09T04:57:50;100007.63;;;16.62;79.72
63500;BME280;49654;51.142;14.924;2022-07-09T05:00:17;99979.84;;;16.40;78.50
63500;BME280;49654;51.142;14.924;2022-07-09T05:02:44;100004.09;;;16.76;77.84
63500;BME280;49654;51.142;14.924;2022-07-09T05:05:13;100012.06;;;16.62;77.48
63500;BME280;49654;51.142;14.924;2022-07-09T05:07:40;100000.25;;;16.72;77.48
63500;BME280;49654;51.142;14.924;2022-07-09T05:10:08;99954.41;;;16.68;76.38
63500;BME280;49654;51.142;14.924;2022-07-09T05:12:35;100000.22;;;17.14;75.80
63500;BME280;49654;51.142;14.924;2022-07-09T05:15:02;99995.88;;;17.41;75.03
63500;BME280;49654;51.142;14.924;2022-07-09T05:17:33;99996.03;;;17.33;73.96
63500;BME280;49654;51.142;14.924;2022-07-09T05:20:01;99987.53;;;17.17;74.20
63500;BME280;49654;51.142;14.924;2022-07-09T05:22:31;99990.19;;;16.83;75.16
63500;BME280;49654;51.142;14.924;2022-07-09T05:24:59;99989.44;;;16.95;75.14
63500;BME280;49654;51.142;14.924;2022-07-09T05:27:26;99993.66;;;16.90;74.22
63500;BME280;49654;51.142;14.924;2022-07-09T05:29:53;99981.19;;;16.92;72.99
63500;BME280;49654;51.142;14.924;2022-07-09T05:32:20;99981.06;;;17.20;72.93
63500;BME280;49654;51.142;14.924;2022-07-09T05:34:47;99973.44;;;17.38;71.09
63500;BME280;49654;51.142;14.924;2022-07-09T05:37:14;99994.50;;;17.71;70.68
63500;BME280;49654;51.142;14.924;2022-07-09T05:39:42;99987.59;;;17.44;69.92
63500;BME280;49654;51.142;14.924;2022-07-09T05:42:09;99994.56;;;17.17;71.44
63500;BME280;49654;51.142;14.924;2022-07-09T05:44:36;99989.69;;;17.00;72.11
63500;BME280;49654;51.142;14.924;2022-07-09T05:47:03;99975.38;;;16.68;72.32
63500;BME280;49654;51.142;14.924;2022-07-09T05:49:30;99934.47;;;16.33;72.90
63500;BME280;49654;51.142;14.924;2022-07-09T05:51:57;99968.69;;;16.66;73.52
63500;BME280;49654;51.142;14.924;2022-07-09T05:54:24;99978.72;;;16.90;71.51
63500;BME280;49654;51.142;14.924;2022-07-09T05:56:53;99986.53;;;17.18;71.45
63500;BME280;49654;51.142;14.924;2022-07-09T05:59:19;99924.78;;;17.36;70.19
63500;BME280;49654;51.142;14.924;2022-07-09T06:01:46;99969.09;;;17.79;67.75
63500;BME280;49654;51.142;14.924;2022-07-09T06:04:13;99977.97;;;17.91;67.38
63500;BME280;49654;51.142;14.924;2022-07-09T06:06:40;99983.44;;;17.83;66.40
63500;BME280;49654;51.142;14.924;2022-07-09T06:09:07;99913.69;;;17.53;67.31
63500;BME280;49654;51.142;14.924;2022-07-09T06:11:34;99975.75;;;18.01;64.00
63500;BME280;49654;51.142;14.924;2022-07-09T06:14:03;99975.34;;;17.97;65.21
63500;BME280;49654;51.142;14.924;2022-07-09T06:16:30;99959.72;;;18.36;64.44
63500;BME280;49654;51.142;14.924;2022-07-09T06:18:57;99973.81;;;18.68;63.14
63500;BME280;49654;51.142;14.924;2022-07-09T06:21:23;99974.44;;;18.63;63.40
63500;BME280;49654;51.142;14.924;2022-07-09T06:23:50;99965.09;;;18.81;63.70
63500;BME280;49654;51.142;14.924;2022-07-09T06:26:17;99949.31;;;18.81;60.67
63500;BME280;49654;51.142;14.924;2022-07-09T06:28:44;99966.72;;;18.75;58.95
63500;BME280;49654;51.142;14.924;2022-07-09T06:31:13;99965.47;;;18.84;60.18
63500;BME280;49654;51.142;14.924;2022-07-09T06:33:40;99962.88;;;18.71;60.16
63500;BME280;49654;51.142;14.924;2022-07-09T06:36:07;99956.53;;;18.92;61.93
63500;BME280;49654;51.142;14.924;2022-07-09T06:38:34;99962.25;;;18.75;60.94
63500;BME280;49654;51.142;14.924;2022-07-09T06:41:21;99958.78;;;19.26;60.46
63500;BME280;49654;51.142;14.924;2022-07-09T06:43:48;99951.91;;;19.25;60.17
63500;BME280;49654;51.142;14.924;2022-07-09T06:46:16;99946.94;;;19.11;60.49
63500;BME280;49654;51.142;14.924;2022-07-09T06:48:43;99947.00;;;19.36;59.78
63500;BME280;49654;51.142;14.924;2022-07-09T06:51:11;99956.84;;;19.47;59.63
63500;BME280;49654;51.142;14.924;2022-07-09T06:53:37;99934.41;;;19.06;59.79
63500;BME280;49654;51.142;14.924;2022-07-09T06:56:05;99931.94;;;19.11;60.69
63500;BME280;49654;51.142;14.924;2022-07-09T06:58:33;99954.69;;;19.31;61.00
63500;BME280;49654;51.142;14.924;2022-07-09T07:01:00;99945.50;;;19.15;60.40
63500;BME280;49654;51.142;14.924;2022-07-09T07:03:28;99944.47;;;18.71;61.29
63500;BME280;49654;51.142;14.924;2022-07-09T07:05:55;99953.38;;;18.70;62.70
63500;BME280;49654;51.142;14.924;2022-07-09T07:08:22;99958.03;;;18.68;60.69
63500;BME280;49654;51.142;14.924;2022-07-09T07:10:49;99954.47;;;18.42;61.79
63500;BME280;49654;51.142;14.924;2022-07-09T07:13:15;99941.44;;;18.74;61.63
63500;BME280;49654;51.142;14.924;2022-07-09T07:15:42;99963.91;;;18.63;61.07
63500;BME280;49654;51.142;14.924;2022-07-09T07:18:10;99949.56;;;18.59;61.98
63500;BME280;49654;51.142;14.924;2022-07-09T07:20:38;99952.72;;;19.26;59.29
63500;BME280;49654;51.142;14.924;2022-07-09T07:23:05;99959.63;;;19.20;59.59
63500;BME280;49654;51.142;14.924;2022-07-09T07:25:32;99963.06;;;19.21;57.87
63500;BME280;49654;51.142;14.924;2022-07-09T07:27:59;99962.34;;;19.39;58.61
63500;BME280;49654;51.142;14.924;2022-07-09T07:30:27;99962.47;;;19.57;57.74
63500;BME280;49654;51.142;14.924;2022-07-09T07:32:53;99957.16;;;19.25;58.79
63500;BME280;49654;51.142;14.924;2022-07-09T07:35:21;99962.75;;;19.42;58.06
63500;BME280;49654;51.142;14.924;2022-07-09T07:37:49;99960.59;;;19.64;57.83
63500;BME280;49654;51.142;14.924;2022-07-09T07:40:16;99953.72;;;19.63;56.45
63500;BME280;49654;51.142;14.924;2022-07-09T07:42:43;99962.75;;;19.74;58.29
63500;BME280;49654;51.142;14.924;2022-07-09T07:45:10;99958.25;;;19.49;57.88
63500;BME280;49654;51.142;14.924;2022-07-09T07:47:37;99960.66;;;19.83;55.70
63500;BME280;49654;51.142;14.924;2022-07-09T07:50:05;99954.69;;;19.31;57.47
63500;BME280;49654;51.142;14.924;2022-07-09T07:52:32;99954.94;;;19.22;57.43
63500;BME280;49654;51.142;14.924;2022-07-09T07:55:00;99946.47;;;19.84;57.10
63500;BME280;49654;51.142;14.924;2022-07-09T07:57:27;99958.94;;;19.95;55.80
63500;BME280;49654;51.142;14.924;2022-07-09T07:59:54;99949.03;;;19.90;55.79
63500;BME280;49654;51.142;14.924;2022-07-09T08:02:21;99949.41;;;19.69;56.43
63500;BME280;49654;51.142;14.924;2022-07-09T08:04:48;99946.78;;;19.94;55.31
63500;BME280;49654;51.142;14.924;2022-07-09T08:07:15;99946.34;;;20.59;55.67
63500;BME280;49654;51.142;14.924;2022-07-09T08:09:42;99948.84;;;20.54;54.81
63500;BME280;49654;51.142;14.924;2022-07-09T08:12:10;99940.19;;;20.65;53.98
63500;BME280;49654;51.142;14.924;2022-07-09T08:14:37;99940.31;;;20.33;55.55
63500;BME280;49654;51.142;14.924;2022-07-09T08:17:05;99930.00;;;20.50;54.25
63500;BME280;49654;51.142;14.924;2022-07-09T08:19:32;99934.78;;;21.38;52.10
63500;BME280;49654;51.142;14.924;2022-07-09T08:21:59;99935.88;;;21.96;52.02
63500;BME280;49654;51.142;14.924;2022-07-09T08:24:26;99933.78;;;21.74;50.66
63500;BME280;49654;51.142;14.924;2022-07-09T08:26:53;99945.94;;;20.92;53.32
63500;BME280;49654;51.142;14.924;2022-07-09T08:29:21;99940.38;;;20.45;55.13
63500;BME280;49654;51.142;14.924;2022-07-09T08:31:48;99944.91;;;20.38;54.97
63500;BME280;49654;51.142;14.924;2022-07-09T08:34:15;99935.31;;;20.98;54.11
63500;BME280;49654;51.142;14.924;2022-07-09T08:36:42;99923.41;;;20.78;54.76
63500;BME280;49654;51.142;14.924;2022-07-09T08:39:10;99927.13;;;20.33;56.17
63500;BME280;49654;51.142;14.924;2022-07-09T08:41:37;99934.00;;;20.16;55.88
63500;BME280;49654;51.142;14.924;2022-07-09T08:44:04;99925.25;;;19.97;55.48
63500;BME280;49654;51.142;14.924;2022-07-09T08:46:33;99903.66;;;20.07;55.60
63500;BME280;49654;51.142;14.924;2022-07-09T08:49:00;99922.66;;;20.70;54.38
63500;BME280;49654;51.142;14.924;2022-07-09T08:51:27;99922.69;;;20.52;56.51
63500;BME280;49654;51.142;14.924;2022-07-09T08:53:55;99913.66;;;21.08;55.21
63500;BME280;49654;51.142;14.924;2022-07-09T08:56:23;99914.88;;;21.36;53.12
63500;BME280;49654;51.142;14.924;2022-07-09T08:58:50;99916.75;;;21.47;53.22
63500;BME280;49654;51.142;14.924;2022-07-09T09:01:17;99905.41;;;21.70;53.44
63500;BME280;49654;51.142;14.924;2022-07-09T09:03:46;99910.31;;;21.66;53.26
63500;BME280;49654;51.142;14.924;2022-07-09T09:06:13;99913.91;;;21.72;51.62
63500;BME280;49654;51.142;14.924;2022-07-09T09:08:41;99921.06;;;21.30;52.76
63500;BME280;49654;51.142;14.924;2022-07-09T09:11:13;99921.72;;;20.65;55.29
63500;BME280;49654;51.142;14.924;2022-07-09T09:13:41;99914.22;;;20.80;54.63
63500;BME280;49654;51.142;14.924;2022-07-09T09:16:10;99893.09;;;21.52;53.07
63500;BME280;49654;51.142;14.924;2022-07-09T09:18:40;99916.34;;;21.97;51.31
63500;BME280;49654;51.142;14.924;2022-07-09T09:21:09;99908.59;;;22.31;51.87
63500;BME280;49654;51.142;14.924;2022-07-09T09:23:40;99907.81;;;21.83;50.88
63500;BME280;49654;51.142;14.924;2022-07-09T09:26:09;99908.03;;;21.58;53.39
63500;BME280;49654;51.142;14.924;2022-07-09T09:28:45;99919.44;;;22.06;52.17
63500;BME280;49654;51.142;14.924;2022-07-09T09:31:23;99917.94;;;21.98;49.33
63500;BME280;49654;51.142;14.924;2022-07-09T09:33:51;99914.31;;;22.51;50.10
63500;BME280;49654;51.142;14.924;2022-07-09T09:36:34;99916.59;;;22.59;48.17
63500;BME280;49654;51.142;14.924;2022-07-09T09:39:08;99919.41;;;21.47;51.42
63500;BME280;49654;51.142;14.924;2022-07-09T09:41:35;99923.91;;;21.82;51.59
63500;BME280;49654;51.142;14.924;2022-07-09T09:44:05;99914.59;;;21.67;50.48
63500;BME280;49654;51.142;14.924;2022-07-09T09:46:34;99922.66;;;21.72;51.70
63500;BME280;49654;51.142;14.924;2022-07-09T09:49:03;99924.00;;;21.75;50.75
63500;BME280;49654;51.142;14.924;2022-07-09T09:51:36;99912.00;;;22.14;49.85
63500;BME280;49654;51.142;14.924;2022-07-09T09:54:04;99916.38;;;21.32;52.44
63500;BME280;49654;51.142;14.924;2022-07-09T09:56:32;99915.13;;;21.04;53.66
63500;BME280;49654;51.142;14.924;2022-07-09T09:59:00;99900.59;;;21.25;54.01
63500;BME280;49654;51.142;14.924;2022-07-09T10:01:28;99890.34;;;22.17;50.43
63500;BME280;49654;51.142;14.924;2022-07-09T10:03:56;99891.00;;;23.05;49.24
63500;BME280;49654;51.142;14.924;2022-07-09T10:06:24;99874.91;;;22.95;47.94
63500;BME280;49654;51.142;14.924;2022-07-09T10:08:54;99892.34;;;23.08;48.40
63500;BME280;49654;51.142;14.924;2022-07-09T10:11:21;99890.16;;;24.06;46.52
63500;BME280;49654;51.142;14.924;2022-07-09T10:13:52;99886.31;;;25.38;43.69
63500;BME280;49654;51.142;14.924;2022-07-09T10:16:31;99888.03;;;24.03;45.10
63500;BME280;49654;51.142;14.924;2022-07-09T10:18:58;99886.91;;;23.14;46.28
63500;BME280;49654;51.142;14.924;2022-07-09T10:21:32;99892.88;;;22.12;48.92
63500;BME280;49654;51.142;14.924;2022-07-09T10:24:01;99857.38;;;21.08;51.33
63500;BME280;49654;51.142;14.924;2022-07-09T10:26:43;99889.53;;;21.93;49.08
63500;BME280;49654;51.142;14.924;2022-07-09T10:29:23;99850.59;;;21.77;49.54
63500;BME280;49654;51.142;14.924;2022-07-09T10:31:51;99882.28;;;21.65;51.14
63500;BME280;49654;51.142;14.924;2022-07-09T10:34:43;99873.56;;;22.23;49.28
63500;BME280;49654;51.142;14.924;2022-07-09T10:37:12;99862.44;;;22.79;47.63
63500;BME280;49654;51.142;14.924;2022-07-09T10:39:41;99860.50;;;22.34;47.48
63500;BME280;49654;51.142;14.924;2022-07-09T10:42:19;99863.66;;;22.88;47.57
63500;BME280;49654;51.142;14.924;2022-07-09T10:44:47;99869.03;;;22.36;47.93
63500;BME280;49654;51.142;14.924;2022-07-09T10:47:15;99872.25;;;22.38;49.48
63500;BME280;49654;51.142;14.924;2022-07-09T10:49:42;99878.38;;;22.03;48.08
63500;BME280;49654;51.142;14.924;2022-07-09T10:52:09;99872.69;;;22.35;49.09
63500;BME280;49654;51.142;14.924;2022-07-09T10:54:46;99877.19;;;23.03;48.22
63500;BME280;49654;51.142;14.924;2022-07-09T10:57:14;99877.00;;;22.24;49.70
63500;BME280;49654;51.142;14.924;2022-07-09T10:59:45;99882.97;;;22.60;48.99
63500;BME280;49654;51.142;14.924;2022-07-09T11:02:17;99882.63;;;22.68;46.84
63500;BME280;49654;51.142;14.924;2022-07-09T11:04:48;99873.44;;;22.07;49.04
63500;BME280;49654;51.142;14.924;2022-07-09T11:07:19;99864.25;;;21.62;50.34
63500;BME280;49654;51.142;14.924;2022-07-09T11:09:50;99883.47;;;21.93;50.12
63500;BME280;49654;51.142;14.924;2022-07-09T11:12:17;99883.88;;;22.37;49.68
63500;BME280;49654;51.142;14.924;2022-07-09T11:14:45;99866.28;;;22.07;48.37
63500;BME280;49654;51.142;14.924;2022-07-09T11:17:15;99882.16;;;22.07;50.10
63500;BME280;49654;51.142;14.924;2022-07-09T11:19:44;99874.34;;;22.64;47.85
63500;BME280;49654;51.142;14.924;2022-07-09T11:22:12;99875.59;;;22.21;48.74
63500;BME280;49654;51.142;14.924;2022-07-09T11:24:39;99880.44;;;22.01;50.33
63500;BME280;49654;51.142;14.924;2022-07-09T11:27:08;99873.94;;;22.44;48.96
63500;BME280;49654;51.142;14.924;2022-07-09T11:29:36;99884.03;;;21.60;50.98
63500;BME280;49654;51.142;14.924;2022-07-09T11:32:04;99880.13;;;21.50;50.88
63500;BME280;49654;51.142;14.924;2022-07-09T11:34:31;99878.50;;;21.73;50.67
63500;BME280;49654;51.142;14.924;2022-07-09T11:36:58;99878.50;;;21.73;49.19
63500;BME280;49654;51.142;14.924;2022-07-09T11:39:27;99869.50;;;22.09;48.99
63500;BME280;49654;51.142;14.924;2022-07-09T11:41:55;99860.66;;;23.30;46.59
63500;BME280;49654;51.142;14.924;2022-07-09T11:44:25;99880.16;;;22.78;47.68
63500;BME280;49654;51.142;14.924;2022-07-09T11:47:03;99862.72;;;22.94;47.87
63500;BME280;49654;51.142;14.924;2022-07-09T11:49:34;99862.09;;;22.75;46.85
63500;BME280;49654;51.142;14.924;2022-07-09T11:52:03;99868.41;;;21.93;48.04
63500;BME280;49654;51.142;14.924;2022-07-09T11:54:30;99864.25;;;21.97;48.45
63500;BME280;49654;51.142;14.924;2022-07-09T11:56:57;99863.41;;;22.09;48.09
63500;BME280;49654;51.142;14.924;2022-07-09T11:59:26;99864.72;;;21.94;49.10
63500;BME280;49654;51.142;14.924;2022-07-09T12:02:00;99861.94;;;21.66;48.69
63500;BME280;49654;51.142;14.924;2022-07-09T12:04:29;99867.34;;;21.83;49.73
63500;BME280;49654;51.142;14.924;2022-07-09T12:06:57;99862.75;;;21.66;50.61
63500;BME280;49654;51.142;14.924;2022-07-09T12:09:28;99854.94;;;21.95;51.01
63500;BME280;49654;51.142;14.924;2022-07-09T12:11:56;99858.38;;;21.95;49.46
63500;BME280;49654;51.142;14.924;2022-07-09T12:14:23;99858.41;;;21.60;51.23
63500;BME280;49654;51.142;14.924;2022-07-09T12:16:51;99872.88;;;21.93;49.40
63500;BME280;49654;51.142;14.924;2022-07-09T12:19:18;99860.44;;;21.35;50.34
63500;BME280;49654;51.142;14.924;2022-07-09T12:21:45;99864.25;;;20.67;51.62
63500;BME280;49654;51.142;14.924;2022-07-09T12:24:13;99855.56;;;20.48;52.98
63500;BME280;49654;51.142;14.924;2022-07-09T12:26:40;99863.69;;;20.65;52.54
63500;BME280;49654;51.142;14.924;2022-07-09T12:29:06;99847.47;;;20.43;53.30
63500;BME280;49654;51.142;14.924;2022-07-09T12:31:33;99860.81;;;20.66;53.24
63500;BME280;49654;51.142;14.924;2022-07-09T12:34:04;99857.59;;;20.64;53.03
63500;BME280;49654;51.142;14.924;2022-07-09T12:36:31;99853.47;;;21.10;51.97
63500;BME280;49654;51.142;14.924;2022-07-09T12:38:59;99848.75;;;21.54;52.96
63500;BME280;49654;51.142;14.924;2022-07-09T12:41:26;99761.59;;;20.77;51.68
63500;BME280;49654;51.142;14.924;2022-07-09T12:43:53;99850.25;;;20.66;52.98
63500;BME280;49654;51.142;14.924;2022-07-09T12:46:20;99850.84;;;20.32;53.88
63500;BME280;49654;51.142;14.924;2022-07-09T12:48:47;99818.72;;;20.05;53.87
63500;BME280;49654;51.142;14.924;2022-07-09T12:51:15;99850.34;;;20.23;54.14